Terminal Aerodrome Forecast
Issued by NWS

Home | Current Version | Previous Version | Text Only | Print | Product List | Glossary On
Versions: 1 2 3 4 5 6 7 8 9 10 11 12 13 14 15
871
FTUS43 KGRR 241140
TAFJXN
TAF
KJXN 241140Z 2412/2512 20011KT P6SM VCSH SCT050 BKN100
     FM241700 21012G20KT P6SM SCT035
     FM250200 23006KT 6SM BR VCSH OVC030
     FM250600 21009KT 4SM BR OVC015
     FM250900 20007KT 4SM BR OVC008
     FM251000 16007KT 1 1/2SM BR OVC003=

USA.gov is the U.S. government's official web portal to all federal, state and local government web resources and services.